Portada
METAR-TAF:

METAR-TAF

Aeropuertos :

Aeropuerto José Chávez Suárez

Santa Ana del Yacuma, Bolivia

latitud: 13-46S, longitud: 065-26W, altitud: 144 m

Observación

El informe se hizo hace 1 hora y 13 minutos, a las 22:00 UTC
Viento 6 kt del sur
Temperatura 32°C
Humedad 67%
Presión 1006 hPa
Visibilidad 10 km o más
Escasas nubes a una altura de 2000 ft
Cielo nuboso a una altura de 8000 ft

METAR: SLSA 242200Z 19006KT 9999 FEW020 BKN080 32/25 Q1006

Hora: 19:13 (23:13 UTC)


TAF: falta

Observaciones y pronósticos meteorológicos de más de 4000 aeropuertos (mensajes METAR y TAF).

Los puntos amarillos y rojos representan las estaciones disponibles.

Ponga el ratón en el punto deseado para ver el nombre de la estación.

Haga clic para ver las observaciones y los pronósticos meteorológicos.

Para cambiar el mapa : haga clic en los botones verdes con una cruz de color negro para hacer un zoom, en el botón verde con un guión para alejar o en las flechas verdes para mapas adyacentes.


METAR-TAF: